createdAt,value
2018-08-31T00:01:25.336Z,16.60
2018-08-31T00:05:02.759Z,16.60
2018-08-31T00:07:43.171Z,16.40
2018-08-31T00:12:51.143Z,16.30
2018-08-31T00:15:19.185Z,16.30
2018-08-31T00:17:47.184Z,16.20
2018-08-31T00:20:15.488Z,16.30
2018-08-31T00:22:43.540Z,16.20
2018-08-31T00:26:23.348Z,16.10
2018-08-31T00:29:45.551Z,16.10
2018-08-31T00:32:39.133Z,16.20
2018-08-31T00:35:15.925Z,16.00
2018-08-31T00:38:59.080Z,15.90
2018-08-31T00:41:48.933Z,15.90
2018-08-31T00:46:25.848Z,15.90
2018-08-31T00:48:54.067Z,15.80
2018-08-31T00:51:22.060Z,15.70
2018-08-31T00:53:50.072Z,15.70
2018-08-31T00:56:18.104Z,15.80
2018-08-31T00:58:46.148Z,15.80
2018-08-31T01:01:14.184Z,15.90
2018-08-31T01:03:42.233Z,15.80
2018-08-31T01:06:10.628Z,15.80
2018-08-31T01:08:38.641Z,15.80
2018-08-31T01:11:06.680Z,15.70
2018-08-31T01:13:34.710Z,15.70
2018-08-31T01:16:02.762Z,15.70
2018-08-31T01:18:30.946Z,15.60
2018-08-31T01:20:58.986Z,15.60
2018-08-31T01:23:26.990Z,15.60
2018-08-31T01:25:55.401Z,15.60
2018-08-31T01:28:23.397Z,15.50
2018-08-31T01:30:51.397Z,15.50
2018-08-31T01:33:19.436Z,15.40
2018-08-31T01:35:47.478Z,15.30
2018-08-31T01:38:15.613Z,15.20
2018-08-31T01:40:44.014Z,15.10
2018-08-31T01:43:12.009Z,15.10
2018-08-31T01:45:40.893Z,15.10
2018-08-31T01:48:09.296Z,15.00
2018-08-31T01:50:41.273Z,15.00
2018-08-31T01:53:09.314Z,15.00
2018-08-31T01:55:37.317Z,15.00
2018-08-31T01:58:05.425Z,15.00
2018-08-31T02:00:33.457Z,15.00
2018-08-31T02:03:01.449Z,15.00
2018-08-31T02:05:29.566Z,14.90
2018-08-31T02:07:57.610Z,14.90
2018-08-31T02:10:25.685Z,14.90
2018-08-31T02:12:53.721Z,14.80
2018-08-31T02:15:21.800Z,14.70
2018-08-31T02:17:49.790Z,14.70
2018-08-31T02:20:18.164Z,14.70
2018-08-31T02:22:46.194Z,14.70
2018-08-31T02:25:14.184Z,14.70
2018-08-31T02:27:42.524Z,14.60
2018-08-31T02:30:10.609Z,14.60
2018-08-31T02:32:38.605Z,14.60
2018-08-31T02:35:06.636Z,14.60
2018-08-31T02:37:34.671Z,14.60
2018-08-31T02:40:02.746Z,14.60
2018-08-31T02:42:30.796Z,14.60
2018-08-31T02:44:59.122Z,14.60
2018-08-31T02:47:27.197Z,14.70
2018-08-31T02:49:55.210Z,14.70
2018-08-31T02:52:23.265Z,14.50
2018-08-31T02:54:51.265Z,14.50
2018-08-31T02:57:19.633Z,14.50
2018-08-31T02:59:47.724Z,14.50
2018-08-31T03:02:15.804Z,14.40
2018-08-31T03:04:43.842Z,14.40
2018-08-31T03:07:11.978Z,14.30
2018-08-31T03:09:40.049Z,14.20
2018-08-31T03:12:08.102Z,14.20
2018-08-31T03:14:36.101Z,14.30
2018-08-31T03:17:04.214Z,14.30
2018-08-31T03:19:32.226Z,14.30
2018-08-31T03:22:00.277Z,14.30
2018-08-31T03:24:28.471Z,14.10
2018-08-31T03:26:56.548Z,14.10
2018-08-31T03:29:24.532Z,14.20
2018-08-31T03:31:52.544Z,14.20
2018-08-31T03:34:20.590Z,14.10
2018-08-31T03:36:48.661Z,14.10
2018-08-31T03:39:16.641Z,14.10
2018-08-31T03:41:44.774Z,14.10
2018-08-31T03:44:12.779Z,14.20
2018-08-31T03:46:40.842Z,14.10
2018-08-31T03:49:08.897Z,14.10
2018-08-31T03:51:36.913Z,14.10
2018-08-31T03:54:05.555Z,14.10
2018-08-31T03:56:33.681Z,14.10
2018-08-31T03:59:01.738Z,14.10
2018-08-31T04:01:29.764Z,14.10
2018-08-31T04:03:57.969Z,14.10
2018-08-31T04:06:26.217Z,14.10
2018-08-31T04:08:54.221Z,14.10
2018-08-31T04:11:22.349Z,14.10
2018-08-31T04:13:50.384Z,14.10
2018-08-31T04:16:18.458Z,14.10
2018-08-31T04:18:46.462Z,14.00
2018-08-31T04:21:14.505Z,14.00
2018-08-31T04:23:42.499Z,13.90
2018-08-31T04:26:10.548Z,13.80
2018-08-31T04:28:38.550Z,13.80
2018-08-31T04:31:06.594Z,13.80
2018-08-31T04:33:34.590Z,13.80
2018-08-31T04:36:16.388Z,13.90
2018-08-31T04:38:44.541Z,14.00
2018-08-31T04:41:12.586Z,13.90
2018-08-31T04:43:40.587Z,13.90
2018-08-31T04:46:08.627Z,13.90
2018-08-31T04:48:36.612Z,14.00
2018-08-31T04:51:04.654Z,14.10
2018-08-31T04:53:32.653Z,14.10
2018-08-31T04:56:01.037Z,14.10
2018-08-31T04:58:29.040Z,14.10
2018-08-31T05:00:57.079Z,14.20
2018-08-31T05:03:25.128Z,14.20
2018-08-31T05:05:53.125Z,14.10
2018-08-31T05:08:21.134Z,14.10
2018-08-31T05:10:49.200Z,14.20
2018-08-31T05:13:17.248Z,14.20
2018-08-31T05:15:45.427Z,14.20
2018-08-31T05:18:13.447Z,14.30
2018-08-31T05:20:41.477Z,14.40
2018-08-31T05:23:09.527Z,14.30
2018-08-31T05:25:37.538Z,14.40
2018-08-31T05:28:05.558Z,14.40
2018-08-31T05:30:33.604Z,14.40
2018-08-31T05:33:01.614Z,14.40
2018-08-31T05:35:29.969Z,14.50
2018-08-31T05:37:57.960Z,14.50
2018-08-31T05:40:26.032Z,14.50
2018-08-31T05:42:54.832Z,14.60
2018-08-31T05:45:22.842Z,14.60
2018-08-31T05:47:50.847Z,14.50
2018-08-31T05:50:18.886Z,14.50
2018-08-31T05:52:46.886Z,14.40
2018-08-31T05:55:14.933Z,14.40
2018-08-31T05:57:42.972Z,14.40
2018-08-31T06:00:11.031Z,14.30
2018-08-31T06:02:39.041Z,14.30
2018-08-31T06:05:07.110Z,14.40
2018-08-31T06:07:35.133Z,14.50
2018-08-31T06:10:03.288Z,14.60
2018-08-31T06:12:31.327Z,14.70
2018-08-31T06:14:59.377Z,14.80
2018-08-31T06:17:27.456Z,14.90
2018-08-31T06:19:55.445Z,15.10
2018-08-31T06:22:23.490Z,15.00
2018-08-31T06:24:51.890Z,14.90
2018-08-31T06:27:19.894Z,15.00
2018-08-31T06:29:48.157Z,15.30
2018-08-31T06:32:16.205Z,15.60
2018-08-31T06:34:44.210Z,15.90
2018-08-31T06:37:12.266Z,15.90
2018-08-31T06:39:40.265Z,15.90
2018-08-31T06:42:08.362Z,16.00
2018-08-31T06:44:36.365Z,16.00
2018-08-31T06:47:04.649Z,15.70
2018-08-31T06:49:32.694Z,15.70
2018-08-31T06:52:00.880Z,15.60
2018-08-31T06:54:29.174Z,15.40
2018-08-31T06:56:57.177Z,15.40
2018-08-31T06:59:25.234Z,15.30
2018-08-31T07:01:53.281Z,15.40
2018-08-31T07:04:21.322Z,15.40
2018-08-31T07:06:49.348Z,15.40
2018-08-31T07:09:17.384Z,15.40
2018-08-31T07:11:45.386Z,15.50
2018-08-31T07:14:13.413Z,15.60
2018-08-31T07:16:41.445Z,15.50
2018-08-31T07:19:09.512Z,15.50
2018-08-31T07:21:37.927Z,15.40
2018-08-31T07:24:05.949Z,15.50
2018-08-31T07:26:33.974Z,15.50
2018-08-31T07:29:01.985Z,15.50
2018-08-31T07:31:30.034Z,15.50
2018-08-31T07:33:58.030Z,15.60
2018-08-31T07:36:26.164Z,15.70
2018-08-31T07:38:54.380Z,15.60
2018-08-31T07:41:22.388Z,15.50
2018-08-31T07:43:50.389Z,15.50
2018-08-31T07:46:18.740Z,15.70
2018-08-31T07:48:46.737Z,15.90
2018-08-31T07:51:14.842Z,16.20
2018-08-31T07:53:42.931Z,16.30
2018-08-31T07:56:10.986Z,16.30
2018-08-31T07:58:38.995Z,16.50
2018-08-31T08:01:07.653Z,16.50
2018-08-31T08:03:35.742Z,16.40
2018-08-31T08:06:03.745Z,16.40
2018-08-31T08:08:31.794Z,16.30
2018-08-31T08:10:59.841Z,16.30
2018-08-31T08:13:27.852Z,16.50
2018-08-31T08:15:55.898Z,16.50
2018-08-31T08:18:23.944Z,16.80
2018-08-31T08:20:51.950Z,17.00
2018-08-31T08:23:19.965Z,16.90
2018-08-31T08:25:48.005Z,17.10
2018-08-31T08:28:16.033Z,17.30
2018-08-31T08:30:44.054Z,17.20
2018-08-31T08:33:12.129Z,17.10
2018-08-31T08:35:40.134Z,17.10
2018-08-31T08:38:08.500Z,17.10
2018-08-31T08:40:36.509Z,17.00
2018-08-31T08:43:04.522Z,16.90
2018-08-31T08:45:32.789Z,16.80
2018-08-31T08:48:00.841Z,16.70
2018-08-31T08:50:28.845Z,16.70
2018-08-31T08:52:56.942Z,16.60
2018-08-31T08:55:24.981Z,16.50
2018-08-31T08:57:53.012Z,16.40
2018-08-31T09:00:21.053Z,16.20
2018-08-31T09:02:49.149Z,16.20
2018-08-31T09:05:17.201Z,16.20
2018-08-31T09:07:45.230Z,16.20
2018-08-31T09:10:13.268Z,16.20
2018-08-31T09:12:41.310Z,16.30
2018-08-31T09:15:09.331Z,16.30
2018-08-31T09:17:37.324Z,16.50
2018-08-31T09:20:05.543Z,16.50
2018-08-31T09:22:33.532Z,16.50
2018-08-31T09:25:01.805Z,16.70
2018-08-31T09:27:32.333Z,16.80
2018-08-31T09:30:00.393Z,16.80
2018-08-31T09:32:29.782Z,16.80
2018-08-31T09:34:58.636Z,17.10
2018-08-31T09:37:26.730Z,17.10
2018-08-31T09:39:54.805Z,17.20
2018-08-31T09:42:22.856Z,17.30
2018-08-31T09:44:50.865Z,17.00
2018-08-31T09:47:18.901Z,17.10
2018-08-31T09:49:47.893Z,17.30
2018-08-31T09:52:17.072Z,17.50
2018-08-31T09:54:45.178Z,17.70
2018-08-31T09:57:13.364Z,17.80
2018-08-31T09:59:42.070Z,17.80
2018-08-31T10:02:15.494Z,17.70
2018-08-31T10:04:44.445Z,17.70
2018-08-31T10:07:12.526Z,17.70
2018-08-31T10:09:40.530Z,17.80
2018-08-31T10:12:08.577Z,17.90
2018-08-31T10:14:36.617Z,18.10
2018-08-31T10:17:04.645Z,18.30
2018-08-31T10:19:32.654Z,18.10
2018-08-31T10:22:00.689Z,18.10
2018-08-31T10:24:28.684Z,18.00
2018-08-31T10:26:56.725Z,18.10
2018-08-31T10:29:24.769Z,18.20
2018-08-31T10:31:52.812Z,18.00
2018-08-31T10:34:20.796Z,18.30
2018-08-31T10:36:48.844Z,18.60
2018-08-31T10:39:16.907Z,18.60
2018-08-31T10:41:44.991Z,18.60
2018-08-31T10:44:13.037Z,18.80
2018-08-31T10:46:41.047Z,18.90
2018-08-31T10:49:09.341Z,19.10
2018-08-31T10:51:37.825Z,18.90
2018-08-31T10:54:06.120Z,19.20
2018-08-31T10:56:34.174Z,19.50
2018-08-31T10:59:02.306Z,19.90
2018-08-31T11:01:30.305Z,20.30
2018-08-31T11:03:58.360Z,20.10
2018-08-31T11:06:26.374Z,20.40
2018-08-31T11:08:54.449Z,20.90
2018-08-31T11:11:22.442Z,21.30
2018-08-31T11:13:50.445Z,21.00
2018-08-31T11:16:18.504Z,21.10
2018-08-31T11:18:46.536Z,21.50
2018-08-31T11:21:14.580Z,21.00
2018-08-31T11:23:42.577Z,21.00
2018-08-31T11:26:10.612Z,20.40
2018-08-31T11:28:38.653Z,19.90
2018-08-31T11:31:06.669Z,19.80
2018-08-31T11:33:35.061Z,20.10
2018-08-31T11:36:03.113Z,20.00
2018-08-31T11:38:31.122Z,20.20
2018-08-31T11:40:59.517Z,20.10
2018-08-31T11:43:27.566Z,20.00
2018-08-31T11:45:55.546Z,19.80
2018-08-31T11:48:23.868Z,19.70
2018-08-31T11:50:51.957Z,19.80
2018-08-31T11:53:20.041Z,19.70
2018-08-31T11:55:48.132Z,19.50
2018-08-31T11:58:16.134Z,19.70
2018-08-31T12:00:44.265Z,20.30
2018-08-31T12:03:12.692Z,20.70
2018-08-31T12:05:40.694Z,20.40
2018-08-31T12:08:08.738Z,20.40
2018-08-31T12:10:36.725Z,20.70
2018-08-31T12:13:04.818Z,20.40
2018-08-31T12:15:32.911Z,20.40
2018-08-31T12:18:00.966Z,20.30
2018-08-31T12:20:28.960Z,20.40
2018-08-31T12:22:57.005Z,20.40
2018-08-31T12:25:25.022Z,20.30
2018-08-31T12:27:53.037Z,20.00
2018-08-31T12:30:21.078Z,20.00
2018-08-31T12:32:49.088Z,20.20
2018-08-31T12:35:17.089Z,20.10
2018-08-31T12:37:45.149Z,19.90
2018-08-31T12:40:13.190Z,19.80
2018-08-31T12:42:41.236Z,19.80
2018-08-31T12:45:09.272Z,19.70
2018-08-31T12:47:37.305Z,19.80
2018-08-31T12:50:05.303Z,20.00
2018-08-31T12:52:33.342Z,20.10
2018-08-31T12:55:01.350Z,20.10
2018-08-31T12:57:29.360Z,20.10
2018-08-31T13:00:00.412Z,20.40
2018-08-31T13:02:29.570Z,20.70
2018-08-31T13:04:57.653Z,20.70
2018-08-31T13:07:25.747Z,20.80
2018-08-31T13:09:53.756Z,20.80
2018-08-31T13:12:21.850Z,20.60
2018-08-31T13:14:50.026Z,20.70
2018-08-31T13:17:18.454Z,20.80
2018-08-31T13:19:46.483Z,20.70
2018-08-31T13:22:14.520Z,20.70
2018-08-31T13:24:42.645Z,20.70
2018-08-31T13:27:10.694Z,20.60
2018-08-31T13:29:38.814Z,20.60
2018-08-31T13:32:06.920Z,20.50
2018-08-31T13:34:34.943Z,20.30
2018-08-31T13:37:03.029Z,20.10
2018-08-31T13:39:31.133Z,19.80
2018-08-31T13:41:59.147Z,19.80
2018-08-31T13:44:27.177Z,19.90
2018-08-31T13:46:55.309Z,19.80
2018-08-31T13:49:23.322Z,19.90
2018-08-31T13:51:51.531Z,20.10
2018-08-31T13:54:19.569Z,20.20
2018-08-31T13:56:47.630Z,20.10
2018-08-31T13:59:15.833Z,20.10
2018-08-31T14:01:44.205Z,20.10
2018-08-31T14:04:12.218Z,20.10
2018-08-31T14:06:40.274Z,20.00
2018-08-31T14:09:08.455Z,20.00
2018-08-31T14:11:36.461Z,20.30
2018-08-31T14:14:04.464Z,20.70
2018-08-31T14:16:35.214Z,20.90
2018-08-31T14:19:04.765Z,21.00
2018-08-31T14:21:32.773Z,20.90
2018-08-31T14:24:00.768Z,20.90
2018-08-31T14:26:29.145Z,20.90
2018-08-31T14:28:57.146Z,20.70
2018-08-31T14:31:25.141Z,20.80
2018-08-31T14:33:53.194Z,20.70
2018-08-31T14:36:21.310Z,20.60
2018-08-31T14:38:49.293Z,20.90
2018-08-31T14:41:17.497Z,20.90
2018-08-31T14:43:45.536Z,20.90
2018-08-31T14:46:13.545Z,21.20
2018-08-31T14:48:41.576Z,21.10
2018-08-31T14:51:09.678Z,21.00
2018-08-31T14:53:38.082Z,20.80
2018-08-31T14:56:06.084Z,20.60
2018-08-31T14:58:34.100Z,20.50
2018-08-31T15:01:02.140Z,20.60
2018-08-31T15:03:30.212Z,20.40
2018-08-31T15:05:58.471Z,20.30
2018-08-31T15:08:26.312Z,20.60
2018-08-31T15:10:54.337Z,21.00
2018-08-31T15:13:22.331Z,21.50
2018-08-31T15:15:50.380Z,21.50
2018-08-31T15:18:18.414Z,21.30
2018-08-31T15:20:46.417Z,20.80
2018-08-31T15:23:14.449Z,20.60
2018-08-31T15:25:42.604Z,20.40
2018-08-31T15:28:10.609Z,20.70
2018-08-31T15:30:39.021Z,20.90
2018-08-31T15:33:07.082Z,21.10
2018-08-31T15:35:36.139Z,21.60
2018-08-31T15:38:10.805Z,21.90
2018-08-31T15:40:38.830Z,22.10
2018-08-31T15:43:07.143Z,21.90
2018-08-31T15:45:35.137Z,22.60
2018-08-31T15:48:03.132Z,23.30
2018-08-31T15:50:31.437Z,23.20
2018-08-31T15:52:59.427Z,22.90
2018-08-31T15:55:27.443Z,22.70
2018-08-31T15:57:55.624Z,23.20
2018-08-31T16:00:23.693Z,23.80
2018-08-31T16:02:51.773Z,24.00
2018-08-31T16:05:20.194Z,23.10
2018-08-31T16:07:48.235Z,22.30
2018-08-31T16:10:16.404Z,21.90
2018-08-31T16:12:44.559Z,21.70
2018-08-31T16:15:12.704Z,21.80
2018-08-31T16:17:41.017Z,22.50
2018-08-31T16:20:09.101Z,23.30
2018-08-31T16:22:37.142Z,24.00
2018-08-31T16:25:05.180Z,24.00
2018-08-31T16:27:33.220Z,23.90
2018-08-31T16:30:01.351Z,23.30
2018-08-31T16:32:29.419Z,22.80
2018-08-31T16:34:57.417Z,22.20
2018-08-31T16:37:25.498Z,22.00
2018-08-31T16:39:53.633Z,22.30
2018-08-31T16:42:22.055Z,22.30
2018-08-31T16:44:50.055Z,22.20
2018-08-31T16:47:18.215Z,21.80
2018-08-31T16:49:46.488Z,21.60
2018-08-31T16:52:14.677Z,21.30
2018-08-31T16:54:42.678Z,20.90
2018-08-31T16:57:10.718Z,20.60
2018-08-31T16:59:38.757Z,20.60
2018-08-31T17:02:06.948Z,20.60
2018-08-31T17:04:35.006Z,20.60
2018-08-31T17:07:03.045Z,20.50
2018-08-31T17:09:31.040Z,20.30
2018-08-31T17:11:59.053Z,20.10
2018-08-31T17:14:27.098Z,19.80
2018-08-31T17:16:55.185Z,19.70
2018-08-31T17:19:30.400Z,19.70
2018-08-31T17:21:58.482Z,19.50
2018-08-31T17:24:26.560Z,19.20
2018-08-31T17:27:00.169Z,19.10
2018-08-31T17:29:35.930Z,19.10
2018-08-31T17:33:13.676Z,18.90
2018-08-31T17:35:47.257Z,18.60
2018-08-31T17:38:15.285Z,18.50
2018-08-31T17:40:43.348Z,18.40
2018-08-31T17:43:11.437Z,18.30
2018-08-31T17:45:39.520Z,18.10
2018-08-31T17:48:07.568Z,18.00
2018-08-31T17:50:35.586Z,17.80
2018-08-31T17:53:03.576Z,17.70
2018-08-31T17:55:31.649Z,17.60
2018-08-31T17:57:59.802Z,17.50
2018-08-31T18:00:27.832Z,17.40
2018-08-31T18:02:55.834Z,17.30
2018-08-31T18:05:23.891Z,17.50
2018-08-31T18:07:52.185Z,17.50
2018-08-31T18:10:20.232Z,17.40
2018-08-31T18:12:48.233Z,17.30
2018-08-31T18:15:16.351Z,17.20
2018-08-31T18:17:44.656Z,17.20
2018-08-31T18:20:13.725Z,17.10
2018-08-31T18:22:41.724Z,17.00
2018-08-31T18:25:09.891Z,16.80
2018-08-31T18:27:37.976Z,16.70
2018-08-31T18:30:06.363Z,16.60
2018-08-31T18:32:34.450Z,16.60
2018-08-31T18:35:02.537Z,16.50
2018-08-31T18:37:30.577Z,16.40
2018-08-31T18:39:58.678Z,16.30
2018-08-31T18:42:26.613Z,16.30
2018-08-31T18:44:54.985Z,16.20
2018-08-31T18:47:23.058Z,16.10
2018-08-31T18:49:51.061Z,16.10
2018-08-31T18:52:19.140Z,16.00
2018-08-31T18:54:47.213Z,16.00
2018-08-31T18:57:15.288Z,16.00
2018-08-31T18:59:43.304Z,15.90
2018-08-31T19:02:11.592Z,15.80
2018-08-31T19:04:39.602Z,15.80
2018-08-31T19:07:08.132Z,15.90
2018-08-31T19:09:36.121Z,15.90
2018-08-31T19:12:04.207Z,15.90
2018-08-31T19:14:32.238Z,15.90
2018-08-31T19:17:01.292Z,16.00
2018-08-31T19:19:29.340Z,16.10
2018-08-31T19:21:57.474Z,16.10
2018-08-31T19:24:25.546Z,16.20
2018-08-31T19:26:55.887Z,16.10
2018-08-31T19:29:24.427Z,15.90
2018-08-31T19:31:52.472Z,15.80
2018-08-31T19:34:20.655Z,15.70
2018-08-31T19:36:48.842Z,15.50
2018-08-31T19:39:16.887Z,15.40
2018-08-31T19:41:45.009Z,15.30
2018-08-31T19:44:13.098Z,15.30
2018-08-31T19:46:41.186Z,15.20
2018-08-31T19:49:09.245Z,15.10
2018-08-31T19:51:37.292Z,15.10
2018-08-31T19:54:05.325Z,15.00
2018-08-31T19:56:33.341Z,14.90
2018-08-31T19:59:01.339Z,14.80
2018-08-31T20:01:29.381Z,14.80
2018-08-31T20:03:57.413Z,14.70
2018-08-31T20:06:25.507Z,14.70
2018-08-31T20:08:53.469Z,14.60
2018-08-31T20:11:21.614Z,14.60
2018-08-31T20:13:49.727Z,14.60
2018-08-31T20:16:17.704Z,14.60
2018-08-31T20:18:45.715Z,14.60
2018-08-31T20:21:14.458Z,14.50
2018-08-31T20:23:42.623Z,14.40
2018-08-31T20:26:10.692Z,14.40
2018-08-31T20:28:38.943Z,14.50
2018-08-31T20:31:06.995Z,14.50
2018-08-31T20:33:35.396Z,14.60
2018-08-31T20:36:03.457Z,14.60
2018-08-31T20:38:31.460Z,14.50
2018-08-31T20:40:59.941Z,14.50
2018-08-31T20:43:27.981Z,14.40
2018-08-31T20:45:56.322Z,14.30
2018-08-31T20:48:24.401Z,14.30
2018-08-31T20:50:52.402Z,14.30
2018-08-31T20:53:20.473Z,14.20
2018-08-31T20:55:48.516Z,14.20
2018-08-31T20:58:16.616Z,14.10
2018-08-31T21:00:44.618Z,14.10
2018-08-31T21:03:12.644Z,14.10
2018-08-31T21:05:40.884Z,14.00
2018-08-31T21:08:08.941Z,14.00
2018-08-31T21:10:36.963Z,14.00
2018-08-31T21:13:05.013Z,14.00
2018-08-31T21:15:33.069Z,14.00
2018-08-31T21:18:01.082Z,14.00
2018-08-31T21:20:29.197Z,14.00
2018-08-31T21:22:57.249Z,14.10
2018-08-31T21:25:25.210Z,14.10
2018-08-31T21:27:53.282Z,14.10
2018-08-31T21:30:21.324Z,14.00
2018-08-31T21:32:49.416Z,14.00
2018-08-31T21:35:17.468Z,13.90
2018-08-31T21:37:45.502Z,13.90
2018-08-31T21:40:13.593Z,13.90
2018-08-31T21:42:41.954Z,13.90
2018-08-31T21:45:09.979Z,13.80
2018-08-31T21:47:38.117Z,13.70
2018-08-31T21:50:06.174Z,13.70
2018-08-31T21:52:34.782Z,13.70
2018-08-31T21:55:02.946Z,13.60
2018-08-31T21:57:30.953Z,13.60
2018-08-31T21:59:59.010Z,13.60
2018-08-31T22:02:27.018Z,13.60
2018-08-31T22:04:55.044Z,13.60
2018-08-31T22:07:23.097Z,13.70
2018-08-31T22:09:51.285Z,13.70
2018-08-31T22:12:19.292Z,13.70
2018-08-31T22:14:47.288Z,13.70
2018-08-31T22:17:15.353Z,13.70
2018-08-31T22:19:43.420Z,13.60
2018-08-31T22:22:11.469Z,13.60
2018-08-31T22:24:39.514Z,13.60
2018-08-31T22:27:07.590Z,13.60
2018-08-31T22:29:35.701Z,13.60
2018-08-31T22:32:03.737Z,13.60
2018-08-31T22:34:31.796Z,13.60
2018-08-31T22:37:00.106Z,13.60
2018-08-31T22:39:28.102Z,13.60
2018-08-31T22:41:56.126Z,13.50
2018-08-31T22:44:24.257Z,13.50
2018-08-31T22:46:52.309Z,13.50
2018-08-31T22:49:20.345Z,13.50
2018-08-31T22:51:48.349Z,13.40
2018-08-31T22:54:16.393Z,13.40
2018-08-31T22:56:44.402Z,13.40
2018-08-31T22:59:12.445Z,13.40
2018-08-31T23:01:40.455Z,13.40
2018-08-31T23:04:08.545Z,13.40
2018-08-31T23:06:36.606Z,13.40
2018-08-31T23:09:05.208Z,13.30
2018-08-31T23:11:33.255Z,13.40
2018-08-31T23:14:01.386Z,13.50
2018-08-31T23:16:29.366Z,13.40
2018-08-31T23:18:57.397Z,13.40
2018-08-31T23:21:25.425Z,13.40
2018-08-31T23:23:53.488Z,13.30
2018-08-31T23:26:21.717Z,13.30
2018-08-31T23:28:49.779Z,13.30
2018-08-31T23:31:17.786Z,13.20
2018-08-31T23:33:45.820Z,13.20
2018-08-31T23:36:13.822Z,13.10
2018-08-31T23:38:41.864Z,13.00
2018-08-31T23:41:09.899Z,13.00
2018-08-31T23:43:37.983Z,12.90
2018-08-31T23:46:05.993Z,12.90
2018-08-31T23:48:34.345Z,12.80
2018-08-31T23:51:02.344Z,12.80
2018-08-31T23:53:30.341Z,12.80
2018-08-31T23:55:58.381Z,12.80
2018-08-31T23:58:26.395Z,12.70
